Flight Track Log - Related Links

Times and Time Zones

All times are in EDT time to prevent confusion due to time zone crossing. See the N678H flight status page for this flight to view local times or setup timezone preferences in your user account.

Time Position Orientation Groundspeed Altitude Reporting Facility
EDT Latitude Longitude Course Direction KTS MPH feet Rate Location/Type
Sat 06:02:15 PM 33.3231 -92.8617 342° North 157 181 3,200  Level Fort Worth Center
Sat 06:03:15 PM 33.3525 -92.8728 343° North 126 145 4,100 800 Climbing Fort Worth Center
Sat 06:04:15 PM 33.3864 -92.8858 342° North 121 139 4,800 750 Climbing Fort Worth Center
Sat 06:05:15 PM 33.4206 -92.9039 336° Northwest 121 139 5,600 850 Climbing Fort Worth Center
Sat 06:06:15 PM 33.4564 -92.9197 340° North 127 146 6,500 900 Climbing Fort Worth Center
Sat 06:07:15 PM 33.4883 -92.9353 338° Northwest 127 146 7,400 800 Climbing Fort Worth Center
Sat 06:08:15 PM 33.5222 -92.9461 345° North 127 146 8,100 785 Climbing Fort Worth Center
Sat 06:09:02 PM 33.5489 -92.9569 341° North 128 147 8,800 841 Climbing Memphis Center
Sat 06:10:02 PM 33.5842 -92.9703 343° North 133 153 9,600 750 Climbing Memphis Center
Sat 06:11:02 PM 33.6172 -92.9839 341° North 128 147 10,300 700 Climbing Memphis Center
Sat 06:12:02 PM 33.6544 -92.9975 343° North 128 147 11,000 700 Climbing Memphis Center
Sat 06:13:02 PM 33.6875 -93.0133 338° Northwest 128 147 11,700 450 Climbing Memphis Center
Sat 06:14:02 PM 33.7247 -93.0297 340° North 128 147 11,900 150 Climbing Memphis Center
Sat 06:15:02 PM 33.7703 -93.0486 341° North 141 162 12,000  Climbing Memphis Center
Sat 06:16:02 PM 33.8136 -93.0672 340° North 152 175 11,900 -50 Descending Memphis Center
Sat 06:17:02 PM 33.8550 -93.0861 339° North 152 175 11,900 50 Level Memphis Center
Sat 06:18:02 PM 33.8964 -93.1050 339° North 152 175 12,000  Climbing Memphis Center
Sat 06:19:02 PM 33.9397 -93.1239 340° North 157 181 11,900 -50 Descending Memphis Center
Sat 06:20:02 PM 33.9789 -93.1425 338° Northwest 157 181 11,900 50 Level Memphis Center
Sat 06:21:02 PM 34.0203 -93.1614 339° North 151 174 12,000 100 Climbing Memphis Center
Sat 06:22:02 PM 34.0636 -93.1831 338° Northwest 151 174 12,100 50 Climbing Memphis Center
Sat 06:23:02 PM 34.1050 -93.1994 342° North 151 174 12,100 -50 Level Memphis Center
Sat 06:24:02 PM 34.1483 -93.2208 338° Northwest 151 174 12,000  Descending Memphis Center
Sat 06:25:02 PM 34.1875 -93.2347 344° North 151 174 12,100 50 Climbing Memphis Center
Sat 06:26:02 PM 34.2311 -93.2536 340° North 151 174 12,100 -100 Level Memphis Center
Sat 06:27:02 PM 34.2767 -93.2653 348° North 157 181 11,900 -50 Descending Memphis Center
Sat 06:28:02 PM 34.3242 -93.2819 344° North 163 188 12,000 50 Climbing Memphis Center
Sat 06:29:02 PM 34.3656 -93.2961 344° North 163 188 12,000 50 Level Memphis Center
Sat 06:30:02 PM 34.4092 -93.3153 340° North 163 188 12,100 50 Climbing Memphis Center
Sat 06:31:02 PM 34.4506 -93.3292 345° North 163 188 12,100  Level Memphis Center
Sat 06:32:02 PM 34.4958 -93.3508 338° Northwest 163 188 12,100 -50 Level Memphis Center
Sat 06:33:02 PM 34.5394 -93.3625 348° North 163 188 12,000 -50 Descending Memphis Center
Sat 06:34:02 PM 34.5786 -93.3764 344° North 163 188 12,000 -50 Level Memphis Center
Sat 06:35:02 PM 34.6222 -93.3906 345° North 163 188 11,900 -50 Descending Memphis Center
Sat 06:36:02 PM 34.6633 -93.4097 339° North 163 188 11,900 50 Level Memphis Center
Sat 06:37:02 PM 34.7067 -93.4264 342° North 163 188 12,000  Climbing Memphis Center
Sat 06:38:02 PM 34.7481 -93.4431 342° North 163 188 11,900  Descending Memphis Center
Sat 06:39:02 PM 34.7914 -93.4675 335° Northwest 163 188 12,000  Climbing Memphis Center
Sat 06:40:02 PM 34.8325 -93.4867 339° North 163 188 11,900  Descending Memphis Center
Sat 06:41:02 PM 34.8758 -93.5061 340° North 168 193 12,000 50 Climbing Memphis Center
Sat 06:42:02 PM 34.9150 -93.5228 341° North 162 186 12,000 50 Level Memphis Center
Sat 06:43:02 PM 34.9586 -93.5369 345° North 162 186 12,100 -50 Climbing Memphis Center
Sat 06:44:02 PM 34.9997 -93.5564 339° North 156 180 11,900 -150 Descending Memphis Center
Sat 06:45:02 PM 35.0386 -93.5831 331° Northwest 161 185 11,800  Descending Memphis Center
Sat 06:46:02 PM 35.0800 -93.6050 337° Northwest 161 185 11,900 50 Climbing Memphis Center
Sat 06:47:02 PM 35.1169 -93.6267 334° Northwest 154 177 11,900  Level Memphis Center
Sat 06:48:02 PM 35.1581 -93.6486 336° Northwest 154 177 11,900  Level Memphis Center
Sat 06:49:02 PM 35.1992 -93.6681 339° North 154 177 11,900 50 Level Memphis Center
Sat 06:50:02 PM 35.2406 -93.6850 342° North 154 177 12,000  Climbing Memphis Center
Sat 06:51:02 PM 35.2861 -93.6994 345° North 154 177 11,900  Descending Memphis Center
Sat 06:52:02 PM 35.3275 -93.7114 347° North 154 177 12,000  Climbing Memphis Center
Sat 06:53:02 PM 35.3708 -93.7283 342° North 154 177 11,900 -50 Descending Memphis Center
Sat 06:54:02 PM 35.4161 -93.7481 340° North 165 190 11,900 -50 Level Memphis Center
Sat 06:55:02 PM 35.4594 -93.7650 342° North 165 190 11,800 -50 Descending Memphis Center
Sat 06:56:02 PM 35.5028 -93.7822 342° North 165 190 11,800 50 Level Memphis Center
Sat 06:57:02 PM 35.5461 -93.8017 340° North 165 190 11,900 100 Climbing Memphis Center
Sat 06:58:02 PM 35.5869 -93.8264 334° Northwest 165 190 12,000 -50 Climbing Memphis Center
Sat 06:59:02 PM 35.6278 -93.8561 329° Northwest 165 190 11,800 -600 Descending Memphis Center
Sat 07:00:02 PM 35.6731 -93.8811 336° Northwest 165 190 10,800 -1,200 Descending Memphis Center
Sat 07:01:02 PM 35.7244 -93.9089 336° Northwest 182 209 9,400 -1,300 Descending Memphis Center
Sat 07:02:02 PM 35.7739 -93.9314 340° North 189 217 8,200 -1,400 Descending Memphis Center
Sat 07:03:02 PM 35.8275 -93.9467 347° North 189 217 6,600 -1,500 Descending Memphis Center
Sat 07:04:02 PM 35.8811 -93.9744 337° Northwest 195 224 5,200 -950 Descending Memphis Center
Sat 07:05:02 PM 35.9322 -94.0050 334° Northwest 195 224 4,700 -600 Descending Memphis Center
Sat 07:06:02 PM 35.9822 -94.0122 353° North 185 213 4,000 -600 Descending Memphis Center
Sat 07:07:02 PM 36.0253 -94.0297 342° North 175 201 3,500 -350 Descending Memphis Center
Sat 07:08:02 PM 36.0689 -94.0419 347° North 175 201 3,300 -200 Descending Memphis Center
Sat 07:11:00 PM 36.1431 -94.0987 328° Northwest  Level FlightAware Approximate
Sat 07:18:00 PM 36.1667 -94.1167 North  Level FlightAware Approximate
Sat 07:19:00 PM 36.1764 -94.1192 North  Level Estimated
Sat 07:20:00 PM 36.1764 -94.1192 North  Level Estimated

Login

Don't have an account? Register now (free) for customized features, flight alerts, and more!